sensor_id;sensor_type;location;lat;lon;timestamp;P1;durP1;ratioP1;P2;durP2;ratioP2
40997;SDS011;26740;45.944;12.480;2023-05-29T00:01:18;4.20;;;2.90;;
40997;SDS011;26740;45.944;12.480;2023-05-29T00:03:44;4.93;;;3.17;;
40997;SDS011;26740;45.944;12.480;2023-05-29T00:06:09;4.85;;;3.33;;
40997;SDS011;26740;45.944;12.480;2023-05-29T00:08:35;4.30;;;3.17;;
40997;SDS011;26740;45.944;12.480;2023-05-29T00:11:00;3.80;;;3.05;;
40997;SDS011;26740;45.944;12.480;2023-05-29T00:13:26;4.65;;;2.35;;
40997;SDS011;26740;45.944;12.480;2023-05-29T00:15:52;4.68;;;3.17;;
40997;SDS011;26740;45.944;12.480;2023-05-29T00:18:17;4.97;;;2.70;;
40997;SDS011;26740;45.944;12.480;2023-05-29T00:20:42;3.60;;;2.45;;
40997;SDS011;26740;45.944;12.480;2023-05-29T00:23:08;4.40;;;2.40;;
40997;SDS011;26740;45.944;12.480;2023-05-29T00:25:35;3.60;;;2.42;;
40997;SDS011;26740;45.944;12.480;2023-05-29T00:28:00;5.38;;;2.85;;
40997;SDS011;26740;45.944;12.480;2023-05-29T00:30:25;4.63;;;2.55;;
40997;SDS011;26740;45.944;12.480;2023-05-29T00:32:51;4.75;;;2.05;;
40997;SDS011;26740;45.944;12.480;2023-05-29T00:35:17;3.58;;;2.70;;
40997;SDS011;26740;45.944;12.480;2023-05-29T00:37:43;2.65;;;2.15;;
40997;SDS011;26740;45.944;12.480;2023-05-29T00:40:08;4.07;;;2.63;;
40997;SDS011;26740;45.944;12.480;2023-05-29T00:42:34;3.38;;;1.90;;
40997;SDS011;26740;45.944;12.480;2023-05-29T00:44:59;4.57;;;2.45;;
40997;SDS011;26740;45.944;12.480;2023-05-29T00:47:25;3.40;;;2.72;;
40997;SDS011;26740;45.944;12.480;2023-05-29T00:49:50;3.28;;;2.30;;
40997;SDS011;26740;45.944;12.480;2023-05-29T00:52:17;5.25;;;2.70;;
40997;SDS011;26740;45.944;12.480;2023-05-29T00:54:43;2.65;;;2.15;;
40997;SDS011;26740;45.944;12.480;2023-05-29T00:57:08;3.22;;;2.20;;
40997;SDS011;26740;45.944;12.480;2023-05-29T00:59:34;4.63;;;2.38;;
40997;SDS011;26740;45.944;12.480;2023-05-29T01:02:00;2.85;;;2.05;;
40997;SDS011;26740;45.944;12.480;2023-05-29T01:04:27;2.80;;;2.28;;
40997;SDS011;26740;45.944;12.480;2023-05-29T01:06:53;5.07;;;2.80;;
40997;SDS011;26740;45.944;12.480;2023-05-29T01:09:18;3.90;;;2.30;;
40997;SDS011;26740;45.944;12.480;2023-05-29T01:11:54;2.63;;;2.00;;
40997;SDS011;26740;45.944;12.480;2023-05-29T01:14:45;4.93;;;2.28;;
40997;SDS011;26740;45.944;12.480;2023-05-29T01:17:08;3.33;;;2.08;;
40997;SDS011;26740;45.944;12.480;2023-05-29T01:24:49;3.50;;;1.70;;
40997;SDS011;26740;45.944;12.480;2023-05-29T01:27:18;2.88;;;2.10;;
40997;SDS011;26740;45.944;12.480;2023-05-29T01:29:44;4.50;;;3.00;;
40997;SDS011;26740;45.944;12.480;2023-05-29T01:32:11;4.10;;;2.63;;
40997;SDS011;26740;45.944;12.480;2023-05-29T01:34:37;3.63;;;2.15;;
40997;SDS011;26740;45.944;12.480;2023-05-29T01:37:02;6.43;;;2.33;;
40997;SDS011;26740;45.944;12.480;2023-05-29T01:39:28;3.92;;;2.83;;
40997;SDS011;26740;45.944;12.480;2023-05-29T01:41:54;3.47;;;2.42;;
40997;SDS011;26740;45.944;12.480;2023-05-29T01:44:20;4.10;;;2.45;;
40997;SDS011;26740;45.944;12.480;2023-05-29T01:46:45;3.88;;;2.28;;
40997;SDS011;26740;45.944;12.480;2023-05-29T01:49:11;3.50;;;2.25;;
40997;SDS011;26740;45.944;12.480;2023-05-29T01:51:37;2.90;;;1.92;;
40997;SDS011;26740;45.944;12.480;2023-05-29T01:54:03;4.57;;;2.90;;
40997;SDS011;26740;45.944;12.480;2023-05-29T01:56:29;4.10;;;2.22;;
40997;SDS011;26740;45.944;12.480;2023-05-29T01:58:55;3.50;;;2.38;;
40997;SDS011;26740;45.944;12.480;2023-05-29T02:01:21;6.40;;;2.20;;
40997;SDS011;26740;45.944;12.480;2023-05-29T02:03:47;3.47;;;1.90;;
40997;SDS011;26740;45.944;12.480;2023-05-29T02:06:12;2.25;;;1.98;;
40997;SDS011;26740;45.944;12.480;2023-05-29T02:08:37;3.28;;;2.10;;
40997;SDS011;26740;45.944;12.480;2023-05-29T02:11:03;4.60;;;2.15;;
40997;SDS011;26740;45.944;12.480;2023-05-29T02:13:28;3.25;;;2.28;;
40997;SDS011;26740;45.944;12.480;2023-05-29T02:15:53;3.83;;;1.90;;
40997;SDS011;26740;45.944;12.480;2023-05-29T02:18:19;2.92;;;2.40;;
40997;SDS011;26740;45.944;12.480;2023-05-29T02:20:45;4.35;;;2.90;;
40997;SDS011;26740;45.944;12.480;2023-05-29T02:23:11;6.15;;;2.20;;
40997;SDS011;26740;45.944;12.480;2023-05-29T02:25:36;3.22;;;1.88;;
40997;SDS011;26740;45.944;12.480;2023-05-29T02:28:02;4.47;;;2.33;;
40997;SDS011;26740;45.944;12.480;2023-05-29T02:30:28;2.13;;;1.83;;
40997;SDS011;26740;45.944;12.480;2023-05-29T02:32:53;5.75;;;2.65;;
40997;SDS011;26740;45.944;12.480;2023-05-29T02:35:19;3.33;;;2.10;;
40997;SDS011;26740;45.944;12.480;2023-05-29T02:37:47;4.35;;;2.58;;
40997;SDS011;26740;45.944;12.480;2023-05-29T02:40:13;2.40;;;2.20;;
40997;SDS011;26740;45.944;12.480;2023-05-29T02:42:38;3.00;;;1.85;;
40997;SDS011;26740;45.944;12.480;2023-05-29T02:45:04;6.28;;;2.03;;
40997;SDS011;26740;45.944;12.480;2023-05-29T02:47:30;3.55;;;2.25;;
40997;SDS011;26740;45.944;12.480;2023-05-29T02:49:55;8.52;;;2.72;;
40997;SDS011;26740;45.944;12.480;2023-05-29T02:52:21;2.45;;;2.10;;
40997;SDS011;26740;45.944;12.480;2023-05-29T02:54:48;2.38;;;1.98;;
40997;SDS011;26740;45.944;12.480;2023-05-29T02:57:13;4.20;;;2.17;;
40997;SDS011;26740;45.944;12.480;2023-05-29T02:59:39;4.25;;;2.83;;
40997;SDS011;26740;45.944;12.480;2023-05-29T03:02:04;3.33;;;2.05;;
40997;SDS011;26740;45.944;12.480;2023-05-29T03:04:29;4.93;;;2.67;;
40997;SDS011;26740;45.944;12.480;2023-05-29T03:06:55;4.95;;;2.55;;
40997;SDS011;26740;45.944;12.480;2023-05-29T03:09:20;5.18;;;2.25;;
40997;SDS011;26740;45.944;12.480;2023-05-29T03:11:46;6.25;;;2.33;;
40997;SDS011;26740;45.944;12.480;2023-05-29T03:14:13;3.58;;;2.05;;
40997;SDS011;26740;45.944;12.480;2023-05-29T03:16:38;2.92;;;2.30;;
40997;SDS011;26740;45.944;12.480;2023-05-29T03:19:06;2.58;;;2.10;;
40997;SDS011;26740;45.944;12.480;2023-05-29T03:21:32;4.07;;;1.98;;
40997;SDS011;26740;45.944;12.480;2023-05-29T03:23:57;4.55;;;2.47;;
40997;SDS011;26740;45.944;12.480;2023-05-29T03:26:23;5.25;;;2.70;;
40997;SDS011;26740;45.944;12.480;2023-05-29T03:28:48;5.18;;;2.58;;
40997;SDS011;26740;45.944;12.480;2023-05-29T03:31:13;3.35;;;2.03;;
40997;SDS011;26740;45.944;12.480;2023-05-29T03:33:39;3.65;;;2.00;;
40997;SDS011;26740;45.944;12.480;2023-05-29T03:36:04;3.30;;;2.10;;
40997;SDS011;26740;45.944;12.480;2023-05-29T03:38:30;5.38;;;2.72;;
40997;SDS011;26740;45.944;12.480;2023-05-29T03:40:55;2.85;;;1.75;;
40997;SDS011;26740;45.944;12.480;2023-05-29T03:43:21;2.95;;;2.33;;
40997;SDS011;26740;45.944;12.480;2023-05-29T03:45:46;3.63;;;2.33;;
40997;SDS011;26740;45.944;12.480;2023-05-29T03:48:11;3.85;;;2.63;;
40997;SDS011;26740;45.944;12.480;2023-05-29T03:50:37;5.15;;;2.92;;
40997;SDS011;26740;45.944;12.480;2023-05-29T03:53:02;5.13;;;2.20;;
40997;SDS011;26740;45.944;12.480;2023-05-29T03:55:27;5.28;;;2.38;;
40997;SDS011;26740;45.944;12.480;2023-05-29T03:57:53;5.65;;;2.65;;
40997;SDS011;26740;45.944;12.480;2023-05-29T04:00:18;4.18;;;2.80;;
40997;SDS011;26740;45.944;12.480;2023-05-29T04:02:44;2.58;;;2.03;;
40997;SDS011;26740;45.944;12.480;2023-05-29T04:05:09;4.03;;;2.83;;
40997;SDS011;26740;45.944;12.480;2023-05-29T04:07:35;4.25;;;2.47;;
40997;SDS011;26740;45.944;12.480;2023-05-29T04:10:04;3.15;;;2.42;;
40997;SDS011;26740;45.944;12.480;2023-05-29T04:12:30;3.53;;;2.50;;
40997;SDS011;26740;45.944;12.480;2023-05-29T04:14:56;3.15;;;2.35;;
40997;SDS011;26740;45.944;12.480;2023-05-29T04:17:21;1.83;;;1.73;;
40997;SDS011;26740;45.944;12.480;2023-05-29T04:19:47;2.95;;;2.33;;
40997;SDS011;26740;45.944;12.480;2023-05-29T04:22:12;3.58;;;2.30;;
40997;SDS011;26740;45.944;12.480;2023-05-29T04:24:38;5.20;;;2.67;;
40997;SDS011;26740;45.944;12.480;2023-05-29T04:27:03;2.97;;;1.80;;
40997;SDS011;26740;45.944;12.480;2023-05-29T04:29:29;5.57;;;2.83;;
40997;SDS011;26740;45.944;12.480;2023-05-29T04:31:55;5.32;;;2.83;;
40997;SDS011;26740;45.944;12.480;2023-05-29T04:34:21;4.30;;;2.45;;
40997;SDS011;26740;45.944;12.480;2023-05-29T04:36:46;3.55;;;2.28;;
40997;SDS011;26740;45.944;12.480;2023-05-29T04:39:12;4.50;;;3.00;;
40997;SDS011;26740;45.944;12.480;2023-05-29T04:41:37;3.35;;;2.13;;
40997;SDS011;26740;45.944;12.480;2023-05-29T04:44:03;4.32;;;2.75;;
40997;SDS011;26740;45.944;12.480;2023-05-29T04:46:29;4.10;;;3.15;;
40997;SDS011;26740;45.944;12.480;2023-05-29T04:48:54;2.53;;;1.88;;
40997;SDS011;26740;45.944;12.480;2023-05-29T04:51:20;4.13;;;2.60;;
40997;SDS011;26740;45.944;12.480;2023-05-29T04:53:47;3.45;;;2.78;;
40997;SDS011;26740;45.944;12.480;2023-05-29T04:56:13;6.13;;;3.20;;
40997;SDS011;26740;45.944;12.480;2023-05-29T04:58:39;5.32;;;2.47;;
40997;SDS011;26740;45.944;12.480;2023-05-29T05:01:05;3.92;;;2.67;;
40997;SDS011;26740;45.944;12.480;2023-05-29T05:03:33;2.90;;;2.60;;
40997;SDS011;26740;45.944;12.480;2023-05-29T05:06:02;3.50;;;3.13;;
40997;SDS011;26740;45.944;12.480;2023-05-29T05:08:28;4.05;;;2.78;;
40997;SDS011;26740;45.944;12.480;2023-05-29T05:10:54;4.68;;;2.60;;
40997;SDS011;26740;45.944;12.480;2023-05-29T05:13:20;4.95;;;2.72;;
40997;SDS011;26740;45.944;12.480;2023-05-29T05:15:45;4.05;;;2.42;;
40997;SDS011;26740;45.944;12.480;2023-05-29T05:18:11;5.25;;;3.20;;
40997;SDS011;26740;45.944;12.480;2023-05-29T05:20:36;3.38;;;2.75;;
40997;SDS011;26740;45.944;12.480;2023-05-29T05:23:01;5.70;;;3.33;;
40997;SDS011;26740;45.944;12.480;2023-05-29T05:25:27;4.63;;;4.03;;
40997;SDS011;26740;45.944;12.480;2023-05-29T05:27:52;4.53;;;3.17;;
40997;SDS011;26740;45.944;12.480;2023-05-29T05:30:18;4.60;;;3.70;;
40997;SDS011;26740;45.944;12.480;2023-05-29T05:32:43;3.67;;;3.20;;
40997;SDS011;26740;45.944;12.480;2023-05-29T05:35:08;6.38;;;3.90;;
40997;SDS011;26740;45.944;12.480;2023-05-29T05:37:36;4.43;;;3.08;;
40997;SDS011;26740;45.944;12.480;2023-05-29T05:40:01;4.53;;;3.75;;
40997;SDS011;26740;45.944;12.480;2023-05-29T05:42:27;4.85;;;4.00;;
40997;SDS011;26740;45.944;12.480;2023-05-29T05:44:52;4.55;;;3.53;;
40997;SDS011;26740;45.944;12.480;2023-05-29T05:47:18;4.38;;;3.65;;
40997;SDS011;26740;45.944;12.480;2023-05-29T05:49:43;5.82;;;3.95;;
40997;SDS011;26740;45.944;12.480;2023-05-29T05:52:08;6.45;;;3.65;;
40997;SDS011;26740;45.944;12.480;2023-05-29T05:54:34;4.97;;;3.72;;
40997;SDS011;26740;45.944;12.480;2023-05-29T05:56:59;6.13;;;4.13;;
40997;SDS011;26740;45.944;12.480;2023-05-29T05:59:25;4.90;;;4.10;;
40997;SDS011;26740;45.944;12.480;2023-05-29T06:01:51;4.35;;;3.15;;
40997;SDS011;26740;45.944;12.480;2023-05-29T06:04:17;4.60;;;2.42;;
40997;SDS011;26740;45.944;12.480;2023-05-29T06:06:42;3.47;;;2.70;;
40997;SDS011;26740;45.944;12.480;2023-05-29T06:09:07;4.65;;;3.25;;
40997;SDS011;26740;45.944;12.480;2023-05-29T06:11:34;3.03;;;2.42;;
40997;SDS011;26740;45.944;12.480;2023-05-29T06:13:59;2.58;;;2.38;;
40997;SDS011;26740;45.944;12.480;2023-05-29T06:16:25;4.70;;;2.80;;
40997;SDS011;26740;45.944;12.480;2023-05-29T06:18:50;14.60;;;4.43;;
40997;SDS011;26740;45.944;12.480;2023-05-29T06:21:15;7.20;;;3.10;;
40997;SDS011;26740;45.944;12.480;2023-05-29T06:23:41;5.38;;;2.47;;
40997;SDS011;26740;45.944;12.480;2023-05-29T06:26:07;4.68;;;2.70;;
40997;SDS011;26740;45.944;12.480;2023-05-29T06:28:32;3.22;;;2.47;;
40997;SDS011;26740;45.944;12.480;2023-05-29T06:30:57;3.97;;;2.63;;
40997;SDS011;26740;45.944;12.480;2023-05-29T06:33:23;4.28;;;2.97;;
40997;SDS011;26740;45.944;12.480;2023-05-29T06:35:49;5.30;;;2.88;;
40997;SDS011;26740;45.944;12.480;2023-05-29T06:38:14;3.67;;;2.88;;
40997;SDS011;26740;45.944;12.480;2023-05-29T06:40:40;6.45;;;2.85;;
40997;SDS011;26740;45.944;12.480;2023-05-29T06:43:05;5.38;;;3.30;;
40997;SDS011;26740;45.944;12.480;2023-05-29T06:45:31;6.03;;;3.22;;
40997;SDS011;26740;45.944;12.480;2023-05-29T06:47:56;6.03;;;3.58;;
40997;SDS011;26740;45.944;12.480;2023-05-29T06:50:22;5.72;;;3.10;;
40997;SDS011;26740;45.944;12.480;2023-05-29T06:52:47;5.22;;;3.58;;
40997;SDS011;26740;45.944;12.480;2023-05-29T06:55:13;4.28;;;2.85;;
40997;SDS011;26740;45.944;12.480;2023-05-29T06:57:38;4.40;;;3.38;;
40997;SDS011;26740;45.944;12.480;2023-05-29T07:00:04;4.93;;;2.80;;
40997;SDS011;26740;45.944;12.480;2023-05-29T07:02:31;4.97;;;2.95;;
40997;SDS011;26740;45.944;12.480;2023-05-29T07:04:56;6.65;;;3.15;;
40997;SDS011;26740;45.944;12.480;2023-05-29T07:07:22;4.82;;;2.35;;
40997;SDS011;26740;45.944;12.480;2023-05-29T07:09:47;4.13;;;2.40;;
40997;SDS011;26740;45.944;12.480;2023-05-29T07:12:12;3.63;;;2.67;;
40997;SDS011;26740;45.944;12.480;2023-05-29T07:14:38;3.13;;;2.58;;
40997;SDS011;26740;45.944;12.480;2023-05-29T07:17:03;2.53;;;2.25;;
40997;SDS011;26740;45.944;12.480;2023-05-29T07:19:29;3.15;;;2.67;;
40997;SDS011;26740;45.944;12.480;2023-05-29T07:21:54;5.97;;;3.63;;
40997;SDS011;26740;45.944;12.480;2023-05-29T07:24:20;5.18;;;2.63;;
40997;SDS011;26740;45.944;12.480;2023-05-29T07:26:45;3.85;;;2.67;;
40997;SDS011;26740;45.944;12.480;2023-05-29T07:29:10;3.03;;;2.10;;
40997;SDS011;26740;45.944;12.480;2023-05-29T07:31:37;5.05;;;1.90;;
40997;SDS011;26740;45.944;12.480;2023-05-29T07:34:05;4.78;;;2.40;;
40997;SDS011;26740;45.944;12.480;2023-05-29T07:36:31;2.35;;;2.15;;
40997;SDS011;26740;45.944;12.480;2023-05-29T07:38:56;3.03;;;2.33;;
40997;SDS011;26740;45.944;12.480;2023-05-29T07:41:23;3.60;;;1.60;;
40997;SDS011;26740;45.944;12.480;2023-05-29T07:43:49;3.20;;;1.95;;
40997;SDS011;26740;45.944;12.480;2023-05-29T07:46:17;3.78;;;1.95;;
40997;SDS011;26740;45.944;12.480;2023-05-29T07:48:43;2.83;;;2.30;;
40997;SDS011;26740;45.944;12.480;2023-05-29T07:51:08;3.17;;;2.10;;
40997;SDS011;26740;45.944;12.480;2023-05-29T07:53:35;3.40;;;2.00;;
40997;SDS011;26740;45.944;12.480;2023-05-29T07:56:01;3.05;;;2.00;;
40997;SDS011;26740;45.944;12.480;2023-05-29T07:58:26;3.65;;;2.40;;
40997;SDS011;26740;45.944;12.480;2023-05-29T08:00:52;4.88;;;1.73;;
40997;SDS011;26740;45.944;12.480;2023-05-29T08:03:18;5.22;;;2.40;;
40997;SDS011;26740;45.944;12.480;2023-05-29T08:05:43;4.28;;;2.05;;
40997;SDS011;26740;45.944;12.480;2023-05-29T08:08:10;4.93;;;2.05;;
40997;SDS011;26740;45.944;12.480;2023-05-29T08:10:38;3.40;;;2.08;;
40997;SDS011;26740;45.944;12.480;2023-05-29T08:13:03;2.05;;;1.85;;
40997;SDS011;26740;45.944;12.480;2023-05-29T08:15:28;6.85;;;2.67;;
40997;SDS011;26740;45.944;12.480;2023-05-29T08:17:54;3.40;;;1.77;;
40997;SDS011;26740;45.944;12.480;2023-05-29T08:20:19;3.15;;;1.83;;
40997;SDS011;26740;45.944;12.480;2023-05-29T08:22:46;2.63;;;2.03;;
40997;SDS011;26740;45.944;12.480;2023-05-29T08:25:11;4.40;;;1.90;;
40997;SDS011;26740;45.944;12.480;2023-05-29T08:27:37;4.55;;;1.80;;
40997;SDS011;26740;45.944;12.480;2023-05-29T08:30:03;2.50;;;1.90;;
40997;SDS011;26740;45.944;12.480;2023-05-29T08:32:28;3.00;;;1.98;;
40997;SDS011;26740;45.944;12.480;2023-05-29T08:34:54;5.93;;;2.03;;
40997;SDS011;26740;45.944;12.480;2023-05-29T08:37:19;2.08;;;1.88;;
40997;SDS011;26740;45.944;12.480;2023-05-29T08:39:45;3.30;;;1.50;;
40997;SDS011;26740;45.944;12.480;2023-05-29T08:42:12;3.50;;;2.17;;
40997;SDS011;26740;45.944;12.480;2023-05-29T08:44:39;2.63;;;1.83;;
40997;SDS011;26740;45.944;12.480;2023-05-29T08:47:05;3.10;;;1.70;;
40997;SDS011;26740;45.944;12.480;2023-05-29T08:49:37;2.85;;;2.10;;
40997;SDS011;26740;45.944;12.480;2023-05-29T08:52:19;2.55;;;2.00;;
40997;SDS011;26740;45.944;12.480;2023-05-29T08:54:44;3.50;;;1.73;;
40997;SDS011;26740;45.944;12.480;2023-05-29T08:57:11;4.03;;;2.03;;
40997;SDS011;26740;45.944;12.480;2023-05-29T08:59:37;5.60;;;2.17;;
40997;SDS011;26740;45.944;12.480;2023-05-29T09:02:04;2.33;;;1.70;;
40997;SDS011;26740;45.944;12.480;2023-05-29T09:04:30;4.55;;;2.08;;
40997;SDS011;26740;45.944;12.480;2023-05-29T09:06:59;1.63;;;1.52;;
40997;SDS011;26740;45.944;12.480;2023-05-29T09:09:25;2.13;;;1.92;;
40997;SDS011;26740;45.944;12.480;2023-05-29T09:11:52;6.45;;;2.20;;
40997;SDS011;26740;45.944;12.480;2023-05-29T09:14:51;5.03;;;2.25;;
40997;SDS011;26740;45.944;12.480;2023-05-29T09:17:10;1.90;;;1.50;;
40997;SDS011;26740;45.944;12.480;2023-05-29T09:19:36;4.15;;;2.10;;
40997;SDS011;26740;45.944;12.480;2023-05-29T09:22:04;5.32;;;2.20;;
40997;SDS011;26740;45.944;12.480;2023-05-29T09:24:31;2.78;;;1.58;;
40997;SDS011;26740;45.944;12.480;2023-05-29T09:26:58;4.88;;;1.55;;
40997;SDS011;26740;45.944;12.480;2023-05-29T09:29:24;4.88;;;2.47;;
40997;SDS011;26740;45.944;12.480;2023-05-29T09:31:50;8.95;;;3.20;;
40997;SDS011;26740;45.944;12.480;2023-05-29T09:34:15;3.33;;;2.00;;
40997;SDS011;26740;45.944;12.480;2023-05-29T09:36:41;2.75;;;1.77;;
40997;SDS011;26740;45.944;12.480;2023-05-29T09:39:07;2.55;;;2.03;;
40997;SDS011;26740;45.944;12.480;2023-05-29T09:41:43;3.65;;;1.77;;
40997;SDS011;26740;45.944;12.480;2023-05-29T09:44:13;6.40;;;2.05;;
40997;SDS011;26740;45.944;12.480;2023-05-29T09:46:39;5.03;;;2.20;;
40997;SDS011;26740;45.944;12.480;2023-05-29T09:49:09;3.42;;;2.08;;
40997;SDS011;26740;45.944;12.480;2023-05-29T09:51:35;2.13;;;1.92;;
40997;SDS011;26740;45.944;12.480;2023-05-29T09:54:12;3.25;;;1.92;;
40997;SDS011;26740;45.944;12.480;2023-05-29T09:56:38;4.97;;;2.17;;
40997;SDS011;26740;45.944;12.480;2023-05-29T09:59:04;2.03;;;1.70;;
40997;SDS011;26740;45.944;12.480;2023-05-29T10:01:30;3.80;;;2.13;;
40997;SDS011;26740;45.944;12.480;2023-05-29T10:03:55;3.50;;;1.85;;
40997;SDS011;26740;45.944;12.480;2023-05-29T10:06:21;2.25;;;1.75;;
40997;SDS011;26740;45.944;12.480;2023-05-29T10:08:47;2.92;;;1.92;;
40997;SDS011;26740;45.944;12.480;2023-05-29T10:11:19;4.28;;;2.35;;
40997;SDS011;26740;45.944;12.480;2023-05-29T10:13:48;1.95;;;1.50;;
40997;SDS011;26740;45.944;12.480;2023-05-29T10:16:16;3.28;;;2.08;;
40997;SDS011;26740;45.944;12.480;2023-05-29T10:18:47;2.42;;;1.80;;
40997;SDS011;26740;45.944;12.480;2023-05-29T10:21:15;4.10;;;1.95;;
40997;SDS011;26740;45.944;12.480;2023-05-29T10:23:42;2.25;;;1.58;;
40997;SDS011;26740;45.944;12.480;2023-05-29T10:26:12;3.67;;;2.08;;
40997;SDS011;26740;45.944;12.480;2023-05-29T10:28:39;4.00;;;1.88;;
40997;SDS011;26740;45.944;12.480;2023-05-29T10:31:09;4.47;;;2.13;;
40997;SDS011;26740;45.944;12.480;2023-05-29T10:36:30;2.88;;;1.95;;
40997;SDS011;26740;45.944;12.480;2023-05-29T10:38:57;2.20;;;1.83;;
40997;SDS011;26740;45.944;12.480;2023-05-29T10:43:58;4.05;;;2.25;;
40997;SDS011;26740;45.944;12.480;2023-05-29T10:49:16;2.88;;;1.77;;
40997;SDS011;26740;45.944;12.480;2023-05-29T10:51:42;4.95;;;1.90;;
40997;SDS011;26740;45.944;12.480;2023-05-29T10:54:07;2.35;;;1.88;;
40997;SDS011;26740;45.944;12.480;2023-05-29T10:56:33;2.30;;;1.55;;
40997;SDS011;26740;45.944;12.480;2023-05-29T10:58:58;3.72;;;2.05;;
40997;SDS011;26740;45.944;12.480;2023-05-29T11:01:27;4.22;;;2.17;;
40997;SDS011;26740;45.944;12.480;2023-05-29T11:06:36;4.35;;;1.83;;
40997;SDS011;26740;45.944;12.480;2023-05-29T11:09:02;4.05;;;2.00;;
40997;SDS011;26740;45.944;12.480;2023-05-29T11:11:33;2.70;;;1.80;;
40997;SDS011;26740;45.944;12.480;2023-05-29T11:14:02;3.45;;;2.00;;
40997;SDS011;26740;45.944;12.480;2023-05-29T11:18:55;3.67;;;2.10;;
40997;SDS011;26740;45.944;12.480;2023-05-29T11:23:57;2.25;;;1.80;;
40997;SDS011;26740;45.944;12.480;2023-05-29T11:26:23;3.53;;;1.67;;
40997;SDS011;26740;45.944;12.480;2023-05-29T11:28:50;4.28;;;2.17;;
40997;SDS011;26740;45.944;12.480;2023-05-29T11:31:15;4.55;;;2.13;;
40997;SDS011;26740;45.944;12.480;2023-05-29T11:33:47;2.50;;;1.73;;
40997;SDS011;26740;45.944;12.480;2023-05-29T11:36:14;3.60;;;2.28;;
40997;SDS011;26740;45.944;12.480;2023-05-29T11:38:39;3.00;;;2.30;;
40997;SDS011;26740;45.944;12.480;2023-05-29T11:41:05;3.15;;;2.47;;
40997;SDS011;26740;45.944;12.480;2023-05-29T11:43:30;6.80;;;2.47;;
40997;SDS011;26740;45.944;12.480;2023-05-29T11:45:56;5.63;;;2.60;;
40997;SDS011;26740;45.944;12.480;2023-05-29T11:48:21;3.30;;;1.98;;
40997;SDS011;26740;45.944;12.480;2023-05-29T11:50:48;7.18;;;2.33;;
40997;SDS011;26740;45.944;12.480;2023-05-29T11:53:14;3.13;;;2.47;;
40997;SDS011;26740;45.944;12.480;2023-05-29T11:55:39;6.38;;;3.33;;
40997;SDS011;26740;45.944;12.480;2023-05-29T11:58:05;5.50;;;2.47;;
40997;SDS011;26740;45.944;12.480;2023-05-29T12:00:31;5.95;;;2.45;;
40997;SDS011;26740;45.944;12.480;2023-05-29T12:02:59;5.05;;;2.53;;
40997;SDS011;26740;45.944;12.480;2023-05-29T12:05:32;4.53;;;2.88;;
40997;SDS011;26740;45.944;12.480;2023-05-29T12:07:58;6.15;;;2.90;;
40997;SDS011;26740;45.944;12.480;2023-05-29T12:10:27;3.95;;;2.38;;
40997;SDS011;26740;45.944;12.480;2023-05-29T12:12:57;2.30;;;1.88;;
40997;SDS011;26740;45.944;12.480;2023-05-29T12:15:22;3.75;;;2.35;;
40997;SDS011;26740;45.944;12.480;2023-05-29T12:17:51;3.92;;;2.03;;
40997;SDS011;26740;45.944;12.480;2023-05-29T12:20:18;5.18;;;2.78;;
40997;SDS011;26740;45.944;12.480;2023-05-29T12:22:44;3.97;;;2.38;;
40997;SDS011;26740;45.944;12.480;2023-05-29T12:25:10;3.53;;;1.75;;
40997;SDS011;26740;45.944;12.480;2023-05-29T12:27:40;4.45;;;2.75;;
40997;SDS011;26740;45.944;12.480;2023-05-29T12:30:11;3.15;;;2.15;;
40997;SDS011;26740;45.944;12.480;2023-05-29T12:32:40;3.35;;;1.92;;
40997;SDS011;26740;45.944;12.480;2023-05-29T12:35:27;5.03;;;2.17;;
40997;SDS011;26740;45.944;12.480;2023-05-29T12:38:01;4.03;;;2.25;;
40997;SDS011;26740;45.944;12.480;2023-05-29T12:40:27;3.38;;;2.17;;
40997;SDS011;26740;45.944;12.480;2023-05-29T12:42:54;3.05;;;1.58;;
40997;SDS011;26740;45.944;12.480;2023-05-29T12:45:21;5.10;;;2.03;;
40997;SDS011;26740;45.944;12.480;2023-05-29T12:47:53;5.32;;;2.40;;
40997;SDS011;26740;45.944;12.480;2023-05-29T12:50:20;3.33;;;2.10;;
40997;SDS011;26740;45.944;12.480;2023-05-29T12:52:46;2.75;;;2.05;;
40997;SDS011;26740;45.944;12.480;2023-05-29T12:55:11;3.63;;;2.30;;
40997;SDS011;26740;45.944;12.480;2023-05-29T12:57:37;3.80;;;2.45;;
40997;SDS011;26740;45.944;12.480;2023-05-29T13:00:02;2.42;;;2.05;;
40997;SDS011;26740;45.944;12.480;2023-05-29T13:02:28;3.47;;;2.17;;
40997;SDS011;26740;45.944;12.480;2023-05-29T13:04:54;9.00;;;2.22;;
40997;SDS011;26740;45.944;12.480;2023-05-29T13:07:19;4.28;;;2.25;;
40997;SDS011;26740;45.944;12.480;2023-05-29T13:09:45;2.33;;;1.77;;
40997;SDS011;26740;45.944;12.480;2023-05-29T13:12:12;3.25;;;2.15;;
40997;SDS011;26740;45.944;12.480;2023-05-29T13:14:37;2.78;;;2.08;;
40997;SDS011;26740;45.944;12.480;2023-05-29T13:17:02;3.90;;;1.77;;
40997;SDS011;26740;45.944;12.480;2023-05-29T13:19:28;2.17;;;1.42;;
40997;SDS011;26740;45.944;12.480;2023-05-29T13:21:53;3.97;;;1.75;;
40997;SDS011;26740;45.944;12.480;2023-05-29T13:24:19;3.03;;;2.13;;
40997;SDS011;26740;45.944;12.480;2023-05-29T13:26:44;3.05;;;1.73;;
40997;SDS011;26740;45.944;12.480;2023-05-29T13:29:10;3.83;;;2.33;;
40997;SDS011;26740;45.944;12.480;2023-05-29T13:31:35;2.47;;;1.80;;
40997;SDS011;26740;45.944;12.480;2023-05-29T13:34:00;4.47;;;1.70;;
40997;SDS011;26740;45.944;12.480;2023-05-29T13:36:26;4.53;;;2.60;;
40997;SDS011;26740;45.944;12.480;2023-05-29T13:38:51;4.07;;;2.33;;
40997;SDS011;26740;45.944;12.480;2023-05-29T13:41:16;2.83;;;2.13;;
40997;SDS011;26740;45.944;12.480;2023-05-29T13:43:42;3.85;;;1.92;;
40997;SDS011;26740;45.944;12.480;2023-05-29T13:46:07;5.25;;;2.97;;
40997;SDS011;26740;45.944;12.480;2023-05-29T13:48:33;5.55;;;1.85;;
40997;SDS011;26740;45.944;12.480;2023-05-29T13:50:59;4.85;;;2.47;;
40997;SDS011;26740;45.944;12.480;2023-05-29T13:53:24;4.63;;;2.05;;
40997;SDS011;26740;45.944;12.480;2023-05-29T13:55:49;2.03;;;1.77;;
40997;SDS011;26740;45.944;12.480;2023-05-29T13:58:15;4.05;;;1.92;;
40997;SDS011;26740;45.944;12.480;2023-05-29T14:00:40;4.05;;;2.78;;
40997;SDS011;26740;45.944;12.480;2023-05-29T14:03:05;3.58;;;2.08;;
40997;SDS011;26740;45.944;12.480;2023-05-29T14:05:31;4.88;;;2.58;;
40997;SDS011;26740;45.944;12.480;2023-05-29T14:07:56;4.93;;;2.55;;
40997;SDS011;26740;45.944;12.480;2023-05-29T14:10:22;3.50;;;2.45;;
40997;SDS011;26740;45.944;12.480;2023-05-29T14:12:47;3.42;;;2.42;;
40997;SDS011;26740;45.944;12.480;2023-05-29T14:15:12;3.05;;;2.13;;
40997;SDS011;26740;45.944;12.480;2023-05-29T14:17:38;5.90;;;2.85;;
40997;SDS011;26740;45.944;12.480;2023-05-29T14:20:03;2.58;;;2.38;;
40997;SDS011;26740;45.944;12.480;2023-05-29T14:22:33;3.00;;;2.20;;
40997;SDS011;26740;45.944;12.480;2023-05-29T14:24:59;3.15;;;2.30;;
40997;SDS011;26740;45.944;12.480;2023-05-29T14:27:26;5.18;;;2.15;;
40997;SDS011;26740;45.944;12.480;2023-05-29T14:29:51;3.05;;;2.40;;
40997;SDS011;26740;45.944;12.480;2023-05-29T14:32:16;2.63;;;1.98;;
40997;SDS011;26740;45.944;12.480;2023-05-29T14:34:42;3.35;;;2.33;;
40997;SDS011;26740;45.944;12.480;2023-05-29T14:37:07;3.55;;;2.53;;
40997;SDS011;26740;45.944;12.480;2023-05-29T14:39:32;4.82;;;2.83;;
40997;SDS011;26740;45.944;12.480;2023-05-29T14:41:58;2.92;;;2.25;;
40997;SDS011;26740;45.944;12.480;2023-05-29T14:44:23;4.00;;;2.20;;
40997;SDS011;26740;45.944;12.480;2023-05-29T14:46:48;2.95;;;2.20;;
40997;SDS011;26740;45.944;12.480;2023-05-29T14:49:14;6.40;;;2.50;;